sensor_id;sensor_type;location;lat;lon;timestamp;P1;durP1;ratioP1;P2;durP2;ratioP2
39448;SDS011;25151;45.566;9.382;2023-07-20T00:04:53;3.83;;;2.50;;
39448;SDS011;25151;45.566;9.382;2023-07-20T00:07:29;4.13;;;2.70;;
39448;SDS011;25151;45.566;9.382;2023-07-20T00:09:59;4.05;;;2.83;;
39448;SDS011;25151;45.566;9.382;2023-07-20T00:12:37;3.70;;;3.08;;
39448;SDS011;25151;45.566;9.382;2023-07-20T00:15:06;6.28;;;3.05;;
39448;SDS011;25151;45.566;9.382;2023-07-20T00:20:05;3.50;;;2.40;;
39448;SDS011;25151;45.566;9.382;2023-07-20T00:22:39;3.92;;;2.65;;
39448;SDS011;25151;45.566;9.382;2023-07-20T00:25:12;4.68;;;2.65;;
39448;SDS011;25151;45.566;9.382;2023-07-20T00:27:48;4.53;;;2.85;;
39448;SDS011;25151;45.566;9.382;2023-07-20T00:30:18;3.85;;;2.28;;
39448;SDS011;25151;45.566;9.382;2023-07-20T00:32:50;6.78;;;3.30;;
39448;SDS011;25151;45.566;9.382;2023-07-20T00:35:20;4.63;;;3.25;;
39448;SDS011;25151;45.566;9.382;2023-07-20T00:37:51;3.90;;;2.70;;
39448;SDS011;25151;45.566;9.382;2023-07-20T00:42:53;3.97;;;2.58;;
39448;SDS011;25151;45.566;9.382;2023-07-20T00:45:26;4.57;;;2.83;;
39448;SDS011;25151;45.566;9.382;2023-07-20T00:47:59;4.03;;;2.60;;
39448;SDS011;25151;45.566;9.382;2023-07-20T00:50:31;5.68;;;2.75;;
39448;SDS011;25151;45.566;9.382;2023-07-20T00:53:02;4.80;;;3.00;;
39448;SDS011;25151;45.566;9.382;2023-07-20T00:55:35;4.40;;;2.80;;
39448;SDS011;25151;45.566;9.382;2023-07-20T00:58:08;5.13;;;2.72;;
39448;SDS011;25151;45.566;9.382;2023-07-20T01:00:41;3.15;;;2.45;;
39448;SDS011;25151;45.566;9.382;2023-07-20T01:03:12;3.58;;;2.60;;
39448;SDS011;25151;45.566;9.382;2023-07-20T01:08:40;2.60;;;2.22;;
39448;SDS011;25151;45.566;9.382;2023-07-20T01:11:20;3.08;;;2.53;;
39448;SDS011;25151;45.566;9.382;2023-07-20T01:14:00;4.53;;;2.80;;
39448;SDS011;25151;45.566;9.382;2023-07-20T01:16:33;5.18;;;3.53;;
39448;SDS011;25151;45.566;9.382;2023-07-20T01:19:00;3.03;;;2.72;;
39448;SDS011;25151;45.566;9.382;2023-07-20T01:21:38;3.70;;;3.00;;
39448;SDS011;25151;45.566;9.382;2023-07-20T01:24:32;4.00;;;3.17;;
39448;SDS011;25151;45.566;9.382;2023-07-20T01:27:23;4.13;;;2.42;;
39448;SDS011;25151;45.566;9.382;2023-07-20T01:33:00;4.22;;;2.55;;
39448;SDS011;25151;45.566;9.382;2023-07-20T01:35:32;3.40;;;2.78;;
39448;SDS011;25151;45.566;9.382;2023-07-20T01:38:05;3.90;;;2.80;;
39448;SDS011;25151;45.566;9.382;2023-07-20T01:40:39;4.25;;;2.85;;
39448;SDS011;25151;45.566;9.382;2023-07-20T01:43:11;3.30;;;2.60;;
39448;SDS011;25151;45.566;9.382;2023-07-20T01:45:41;4.45;;;3.05;;
39448;SDS011;25151;45.566;9.382;2023-07-20T01:48:16;5.18;;;2.75;;
39448;SDS011;25151;45.566;9.382;2023-07-20T01:50:46;3.00;;;2.70;;
39448;SDS011;25151;45.566;9.382;2023-07-20T01:53:20;3.47;;;2.47;;
39448;SDS011;25151;45.566;9.382;2023-07-20T01:55:56;3.70;;;2.72;;
39448;SDS011;25151;45.566;9.382;2023-07-20T01:58:25;4.07;;;2.97;;
39448;SDS011;25151;45.566;9.382;2023-07-20T02:00:58;5.10;;;3.17;;
39448;SDS011;25151;45.566;9.382;2023-07-20T02:03:27;3.55;;;2.58;;
39448;SDS011;25151;45.566;9.382;2023-07-20T02:05:57;3.67;;;2.50;;
39448;SDS011;25151;45.566;9.382;2023-07-20T02:08:27;5.47;;;2.65;;
39448;SDS011;25151;45.566;9.382;2023-07-20T02:10:55;3.22;;;2.50;;
39448;SDS011;25151;45.566;9.382;2023-07-20T02:13:30;3.83;;;2.55;;
39448;SDS011;25151;45.566;9.382;2023-07-20T02:15:59;3.85;;;2.78;;
39448;SDS011;25151;45.566;9.382;2023-07-20T02:18:34;3.88;;;2.92;;
39448;SDS011;25151;45.566;9.382;2023-07-20T02:21:09;3.83;;;2.65;;
39448;SDS011;25151;45.566;9.382;2023-07-20T02:23:42;3.60;;;2.83;;
39448;SDS011;25151;45.566;9.382;2023-07-20T02:26:14;4.00;;;2.65;;
39448;SDS011;25151;45.566;9.382;2023-07-20T02:28:47;3.20;;;2.85;;
39448;SDS011;25151;45.566;9.382;2023-07-20T02:31:16;7.05;;;5.25;;
39448;SDS011;25151;45.566;9.382;2023-07-20T02:33:49;8.40;;;5.63;;
39448;SDS011;25151;45.566;9.382;2023-07-20T02:36:21;12.75;;;6.70;;
39448;SDS011;25151;45.566;9.382;2023-07-20T02:38:48;14.37;;;7.83;;
39448;SDS011;25151;45.566;9.382;2023-07-20T02:41:28;12.95;;;7.78;;
39448;SDS011;25151;45.566;9.382;2023-07-20T02:44:01;14.05;;;7.78;;
39448;SDS011;25151;45.566;9.382;2023-07-20T02:46:53;12.63;;;7.70;;
39448;SDS011;25151;45.566;9.382;2023-07-20T02:49:32;12.02;;;7.30;;
39448;SDS011;25151;45.566;9.382;2023-07-20T02:54:40;12.00;;;8.40;;
39448;SDS011;25151;45.566;9.382;2023-07-20T02:57:06;15.82;;;9.38;;
39448;SDS011;25151;45.566;9.382;2023-07-20T02:59:33;16.67;;;8.98;;
39448;SDS011;25151;45.566;9.382;2023-07-20T03:02:04;16.40;;;9.38;;
39448;SDS011;25151;45.566;9.382;2023-07-20T03:04:37;17.65;;;9.90;;
39448;SDS011;25151;45.566;9.382;2023-07-20T03:07:06;13.63;;;9.07;;
39448;SDS011;25151;45.566;9.382;2023-07-20T03:09:36;16.02;;;9.73;;
39448;SDS011;25151;45.566;9.382;2023-07-20T03:12:10;13.05;;;9.30;;
39448;SDS011;25151;45.566;9.382;2023-07-20T03:14:37;14.90;;;9.18;;
39448;SDS011;25151;45.566;9.382;2023-07-20T03:17:04;16.20;;;8.65;;
39448;SDS011;25151;45.566;9.382;2023-07-20T03:19:31;15.18;;;9.27;;
39448;SDS011;25151;45.566;9.382;2023-07-20T03:21:58;16.67;;;10.05;;
39448;SDS011;25151;45.566;9.382;2023-07-20T03:24:24;18.38;;;11.07;;
39448;SDS011;25151;45.566;9.382;2023-07-20T03:26:51;12.13;;;9.68;;
39448;SDS011;25151;45.566;9.382;2023-07-20T03:29:19;16.30;;;10.25;;
39448;SDS011;25151;45.566;9.382;2023-07-20T03:31:47;16.52;;;11.48;;
39448;SDS011;25151;45.566;9.382;2023-07-20T03:34:14;15.68;;;9.27;;
39448;SDS011;25151;45.566;9.382;2023-07-20T03:36:45;17.35;;;11.38;;
39448;SDS011;25151;45.566;9.382;2023-07-20T03:39:12;15.63;;;10.15;;
39448;SDS011;25151;45.566;9.382;2023-07-20T03:41:39;15.05;;;10.13;;
39448;SDS011;25151;45.566;9.382;2023-07-20T03:44:08;16.77;;;10.38;;
39448;SDS011;25151;45.566;9.382;2023-07-20T03:46:35;13.02;;;8.90;;
39448;SDS011;25151;45.566;9.382;2023-07-20T03:49:03;17.48;;;9.75;;
39448;SDS011;25151;45.566;9.382;2023-07-20T03:51:31;14.65;;;9.57;;
39448;SDS011;25151;45.566;9.382;2023-07-20T03:53:58;14.48;;;9.73;;
39448;SDS011;25151;45.566;9.382;2023-07-20T03:56:29;14.88;;;10.13;;
39448;SDS011;25151;45.566;9.382;2023-07-20T03:58:59;15.88;;;10.02;;
39448;SDS011;25151;45.566;9.382;2023-07-20T04:01:29;13.68;;;8.88;;
39448;SDS011;25151;45.566;9.382;2023-07-20T04:04:04;15.48;;;10.40;;
39448;SDS011;25151;45.566;9.382;2023-07-20T04:06:32;15.18;;;10.07;;
39448;SDS011;25151;45.566;9.382;2023-07-20T04:09:00;18.42;;;11.63;;
39448;SDS011;25151;45.566;9.382;2023-07-20T04:11:30;16.88;;;9.73;;
39448;SDS011;25151;45.566;9.382;2023-07-20T04:13:57;15.05;;;10.98;;
39448;SDS011;25151;45.566;9.382;2023-07-20T04:16:25;17.13;;;11.30;;
39448;SDS011;25151;45.566;9.382;2023-07-20T04:18:54;16.08;;;11.52;;
39448;SDS011;25151;45.566;9.382;2023-07-20T04:21:21;16.02;;;10.95;;
39448;SDS011;25151;45.566;9.382;2023-07-20T04:23:49;17.20;;;10.70;;
39448;SDS011;25151;45.566;9.382;2023-07-20T04:26:16;18.40;;;10.77;;
39448;SDS011;25151;45.566;9.382;2023-07-20T04:28:44;14.75;;;11.57;;
39448;SDS011;25151;45.566;9.382;2023-07-20T04:31:13;15.82;;;11.30;;
39448;SDS011;25151;45.566;9.382;2023-07-20T04:33:41;13.15;;;10.82;;
39448;SDS011;25151;45.566;9.382;2023-07-20T04:36:09;14.73;;;10.93;;
39448;SDS011;25151;45.566;9.382;2023-07-20T04:38:34;20.58;;;12.07;;
39448;SDS011;25151;45.566;9.382;2023-07-20T04:41:02;15.27;;;11.30;;
39448;SDS011;25151;45.566;9.382;2023-07-20T04:43:29;16.13;;;11.70;;
39448;SDS011;25151;45.566;9.382;2023-07-20T04:45:57;15.30;;;11.55;;
39448;SDS011;25151;45.566;9.382;2023-07-20T04:48:24;15.05;;;10.70;;
39448;SDS011;25151;45.566;9.382;2023-07-20T04:50:52;12.95;;;11.05;;
39448;SDS011;25151;45.566;9.382;2023-07-20T04:53:23;16.83;;;11.48;;
39448;SDS011;25151;45.566;9.382;2023-07-20T04:55:56;14.90;;;10.23;;
39448;SDS011;25151;45.566;9.382;2023-07-20T04:58:26;17.92;;;10.77;;
39448;SDS011;25151;45.566;9.382;2023-07-20T05:00:58;15.45;;;9.65;;
39448;SDS011;25151;45.566;9.382;2023-07-20T05:05:55;18.27;;;10.50;;
39448;SDS011;25151;45.566;9.382;2023-07-20T05:08:27;17.88;;;11.30;;
39448;SDS011;25151;45.566;9.382;2023-07-20T05:11:03;13.88;;;10.35;;
39448;SDS011;25151;45.566;9.382;2023-07-20T05:13:32;19.15;;;10.38;;
39448;SDS011;25151;45.566;9.382;2023-07-20T05:16:07;14.85;;;10.25;;
39448;SDS011;25151;45.566;9.382;2023-07-20T05:18:40;14.98;;;9.50;;
39448;SDS011;25151;45.566;9.382;2023-07-20T05:21:14;13.70;;;9.52;;
39448;SDS011;25151;45.566;9.382;2023-07-20T05:23:44;10.48;;;9.07;;
39448;SDS011;25151;45.566;9.382;2023-07-20T05:26:13;13.52;;;9.20;;
39448;SDS011;25151;45.566;9.382;2023-07-20T05:28:49;14.48;;;9.55;;
39448;SDS011;25151;45.566;9.382;2023-07-20T05:31:21;18.83;;;10.93;;
39448;SDS011;25151;45.566;9.382;2023-07-20T05:33:54;13.88;;;10.27;;
39448;SDS011;25151;45.566;9.382;2023-07-20T05:36:27;15.93;;;10.93;;
39448;SDS011;25151;45.566;9.382;2023-07-20T05:38:56;18.33;;;11.48;;
39448;SDS011;25151;45.566;9.382;2023-07-20T05:41:30;15.95;;;11.10;;
39448;SDS011;25151;45.566;9.382;2023-07-20T05:44:03;15.77;;;11.57;;
39448;SDS011;25151;45.566;9.382;2023-07-20T05:46:33;15.57;;;11.38;;
39448;SDS011;25151;45.566;9.382;2023-07-20T05:49:06;18.35;;;12.80;;
39448;SDS011;25151;45.566;9.382;2023-07-20T05:51:34;20.70;;;11.68;;
39448;SDS011;25151;45.566;9.382;2023-07-20T05:56:33;15.63;;;9.93;;
39448;SDS011;25151;45.566;9.382;2023-07-20T05:59:08;16.48;;;11.10;;
39448;SDS011;25151;45.566;9.382;2023-07-20T06:01:35;16.70;;;10.60;;
39448;SDS011;25151;45.566;9.382;2023-07-20T06:04:03;15.77;;;11.07;;
39448;SDS011;25151;45.566;9.382;2023-07-20T06:06:31;14.10;;;10.63;;
39448;SDS011;25151;45.566;9.382;2023-07-20T06:09:01;16.08;;;11.80;;
39448;SDS011;25151;45.566;9.382;2023-07-20T06:11:29;16.52;;;10.95;;
39448;SDS011;25151;45.566;9.382;2023-07-20T06:13:57;16.88;;;10.82;;
39448;SDS011;25151;45.566;9.382;2023-07-20T06:16:24;14.55;;;10.73;;
39448;SDS011;25151;45.566;9.382;2023-07-20T06:18:51;12.48;;;9.68;;
39448;SDS011;25151;45.566;9.382;2023-07-20T06:21:19;14.13;;;10.55;;
39448;SDS011;25151;45.566;9.382;2023-07-20T06:23:46;16.38;;;9.20;;
39448;SDS011;25151;45.566;9.382;2023-07-20T06:26:14;14.23;;;9.63;;
39448;SDS011;25151;45.566;9.382;2023-07-20T06:28:46;12.75;;;9.07;;
39448;SDS011;25151;45.566;9.382;2023-07-20T06:31:13;12.82;;;9.00;;
39448;SDS011;25151;45.566;9.382;2023-07-20T06:33:41;13.60;;;8.80;;
39448;SDS011;25151;45.566;9.382;2023-07-20T06:36:09;15.15;;;9.27;;
39448;SDS011;25151;45.566;9.382;2023-07-20T06:38:36;13.80;;;7.07;;
39448;SDS011;25151;45.566;9.382;2023-07-20T06:41:03;15.98;;;7.85;;
39448;SDS011;25151;45.566;9.382;2023-07-20T06:43:31;16.77;;;8.02;;
39448;SDS011;25151;45.566;9.382;2023-07-20T06:45:58;11.98;;;7.88;;
39448;SDS011;25151;45.566;9.382;2023-07-20T06:48:25;19.85;;;7.53;;
39448;SDS011;25151;45.566;9.382;2023-07-20T06:50:52;10.27;;;6.95;;
39448;SDS011;25151;45.566;9.382;2023-07-20T06:53:20;9.98;;;7.03;;
39448;SDS011;25151;45.566;9.382;2023-07-20T06:55:48;14.10;;;7.35;;
39448;SDS011;25151;45.566;9.382;2023-07-20T06:58:15;11.27;;;6.70;;
39448;SDS011;25151;45.566;9.382;2023-07-20T07:00:43;13.88;;;7.07;;
39448;SDS011;25151;45.566;9.382;2023-07-20T07:03:10;11.63;;;7.00;;
39448;SDS011;25151;45.566;9.382;2023-07-20T07:05:38;12.20;;;6.60;;
39448;SDS011;25151;45.566;9.382;2023-07-20T07:08:05;13.40;;;6.53;;
39448;SDS011;25151;45.566;9.382;2023-07-20T07:10:34;11.32;;;6.28;;
39448;SDS011;25151;45.566;9.382;2023-07-20T07:13:02;11.45;;;6.60;;
39448;SDS011;25151;45.566;9.382;2023-07-20T07:15:29;10.95;;;6.43;;
39448;SDS011;25151;45.566;9.382;2023-07-20T07:17:57;11.55;;;6.85;;
39448;SDS011;25151;45.566;9.382;2023-07-20T07:20:24;7.78;;;5.47;;
39448;SDS011;25151;45.566;9.382;2023-07-20T07:22:53;11.70;;;6.20;;
39448;SDS011;25151;45.566;9.382;2023-07-20T07:25:22;11.82;;;6.78;;
39448;SDS011;25151;45.566;9.382;2023-07-20T07:27:49;8.32;;;5.68;;
39448;SDS011;25151;45.566;9.382;2023-07-20T07:30:17;10.98;;;6.40;;
39448;SDS011;25151;45.566;9.382;2023-07-20T07:32:44;12.23;;;6.65;;
39448;SDS011;25151;45.566;9.382;2023-07-20T07:35:12;9.88;;;6.30;;
39448;SDS011;25151;45.566;9.382;2023-07-20T07:37:39;12.43;;;6.95;;
39448;SDS011;25151;45.566;9.382;2023-07-20T07:40:07;11.10;;;6.28;;
39448;SDS011;25151;45.566;9.382;2023-07-20T07:42:34;11.02;;;6.25;;
39448;SDS011;25151;45.566;9.382;2023-07-20T07:45:02;11.80;;;6.13;;
39448;SDS011;25151;45.566;9.382;2023-07-20T07:47:29;8.75;;;5.68;;
39448;SDS011;25151;45.566;9.382;2023-07-20T07:49:56;11.55;;;6.05;;
39448;SDS011;25151;45.566;9.382;2023-07-20T07:52:24;11.25;;;6.93;;
39448;SDS011;25151;45.566;9.382;2023-07-20T07:54:51;9.20;;;5.85;;
39448;SDS011;25151;45.566;9.382;2023-07-20T07:57:19;9.65;;;5.85;;
39448;SDS011;25151;45.566;9.382;2023-07-20T07:59:46;11.77;;;6.18;;
39448;SDS011;25151;45.566;9.382;2023-07-20T08:02:14;8.40;;;6.15;;
39448;SDS011;25151;45.566;9.382;2023-07-20T08:04:40;7.95;;;6.07;;
39448;SDS011;25151;45.566;9.382;2023-07-20T08:07:08;10.98;;;6.75;;
39448;SDS011;25151;45.566;9.382;2023-07-20T08:09:35;9.10;;;6.28;;
39448;SDS011;25151;45.566;9.382;2023-07-20T08:12:03;9.05;;;6.85;;
39448;SDS011;25151;45.566;9.382;2023-07-20T08:14:30;8.75;;;5.95;;
39448;SDS011;25151;45.566;9.382;2023-07-20T08:16:57;9.70;;;6.57;;
39448;SDS011;25151;45.566;9.382;2023-07-20T08:19:25;9.07;;;5.95;;
39448;SDS011;25151;45.566;9.382;2023-07-20T08:21:52;9.13;;;6.55;;
39448;SDS011;25151;45.566;9.382;2023-07-20T08:24:20;9.98;;;6.13;;
39448;SDS011;25151;45.566;9.382;2023-07-20T08:26:47;10.30;;;6.40;;
39448;SDS011;25151;45.566;9.382;2023-07-20T08:29:15;9.23;;;6.25;;
39448;SDS011;25151;45.566;9.382;2023-07-20T08:31:42;9.80;;;6.25;;
39448;SDS011;25151;45.566;9.382;2023-07-20T08:34:08;8.40;;;5.88;;
39448;SDS011;25151;45.566;9.382;2023-07-20T08:36:36;9.30;;;6.22;;
39448;SDS011;25151;45.566;9.382;2023-07-20T08:39:03;9.18;;;5.90;;
39448;SDS011;25151;45.566;9.382;2023-07-20T08:41:30;14.63;;;6.10;;
39448;SDS011;25151;45.566;9.382;2023-07-20T08:43:58;12.77;;;5.90;;
39448;SDS011;25151;45.566;9.382;2023-07-20T08:46:27;9.10;;;5.95;;
39448;SDS011;25151;45.566;9.382;2023-07-20T08:48:55;13.23;;;6.20;;
39448;SDS011;25151;45.566;9.382;2023-07-20T08:51:23;11.32;;;6.40;;
39448;SDS011;25151;45.566;9.382;2023-07-20T08:53:51;12.32;;;6.15;;
39448;SDS011;25151;45.566;9.382;2023-07-20T08:56:18;17.23;;;7.30;;
39448;SDS011;25151;45.566;9.382;2023-07-20T08:58:47;10.07;;;6.30;;
39448;SDS011;25151;45.566;9.382;2023-07-20T09:01:14;10.23;;;6.82;;
39448;SDS011;25151;45.566;9.382;2023-07-20T09:03:43;12.40;;;6.63;;
39448;SDS011;25151;45.566;9.382;2023-07-20T09:06:12;12.77;;;6.80;;
39448;SDS011;25151;45.566;9.382;2023-07-20T09:08:42;15.18;;;7.30;;
39448;SDS011;25151;45.566;9.382;2023-07-20T09:11:10;11.55;;;7.20;;
39448;SDS011;25151;45.566;9.382;2023-07-20T09:13:40;12.25;;;6.65;;
39448;SDS011;25151;45.566;9.382;2023-07-20T09:16:08;15.48;;;6.82;;
39448;SDS011;25151;45.566;9.382;2023-07-20T09:18:40;16.30;;;6.38;;
39448;SDS011;25151;45.566;9.382;2023-07-20T09:21:07;13.40;;;6.78;;
39448;SDS011;25151;45.566;9.382;2023-07-20T09:23:35;13.20;;;6.85;;
39448;SDS011;25151;45.566;9.382;2023-07-20T09:26:10;10.40;;;6.40;;
39448;SDS011;25151;45.566;9.382;2023-07-20T09:28:42;16.00;;;7.20;;
39448;SDS011;25151;45.566;9.382;2023-07-20T09:31:17;11.50;;;6.78;;
39448;SDS011;25151;45.566;9.382;2023-07-20T09:33:45;15.30;;;7.18;;
39448;SDS011;25151;45.566;9.382;2023-07-20T09:36:13;13.68;;;6.85;;
39448;SDS011;25151;45.566;9.382;2023-07-20T09:38:43;16.85;;;7.43;;
39448;SDS011;25151;45.566;9.382;2023-07-20T09:41:14;18.50;;;7.40;;
39448;SDS011;25151;45.566;9.382;2023-07-20T09:43:42;16.23;;;7.30;;
39448;SDS011;25151;45.566;9.382;2023-07-20T09:46:11;16.90;;;6.80;;
39448;SDS011;25151;45.566;9.382;2023-07-20T09:48:38;14.75;;;6.55;;
39448;SDS011;25151;45.566;9.382;2023-07-20T09:51:06;12.70;;;7.13;;
39448;SDS011;25151;45.566;9.382;2023-07-20T09:53:34;14.13;;;7.82;;
39448;SDS011;25151;45.566;9.382;2023-07-20T09:56:02;12.65;;;6.82;;
39448;SDS011;25151;45.566;9.382;2023-07-20T09:58:30;20.48;;;7.30;;
39448;SDS011;25151;45.566;9.382;2023-07-20T10:01:00;13.80;;;7.13;;
39448;SDS011;25151;45.566;9.382;2023-07-20T10:03:33;15.23;;;7.85;;
39448;SDS011;25151;45.566;9.382;2023-07-20T10:06:05;16.58;;;7.28;;
39448;SDS011;25151;45.566;9.382;2023-07-20T10:08:35;16.70;;;6.68;;
39448;SDS011;25151;45.566;9.382;2023-07-20T10:11:08;15.73;;;7.20;;
39448;SDS011;25151;45.566;9.382;2023-07-20T10:13:37;16.15;;;6.78;;
39448;SDS011;25151;45.566;9.382;2023-07-20T10:16:27;15.48;;;7.40;;
39448;SDS011;25151;45.566;9.382;2023-07-20T10:21:59;13.23;;;6.43;;
39448;SDS011;25151;45.566;9.382;2023-07-20T10:24:29;12.63;;;6.65;;
39448;SDS011;25151;45.566;9.382;2023-07-20T10:26:57;10.38;;;6.90;;
39448;SDS011;25151;45.566;9.382;2023-07-20T10:29:25;12.02;;;6.97;;
39448;SDS011;25151;45.566;9.382;2023-07-20T10:31:53;12.60;;;7.10;;
39448;SDS011;25151;45.566;9.382;2023-07-20T10:34:21;16.00;;;7.47;;
39448;SDS011;25151;45.566;9.382;2023-07-20T10:36:49;13.15;;;6.43;;
39448;SDS011;25151;45.566;9.382;2023-07-20T10:39:26;13.18;;;6.85;;
39448;SDS011;25151;45.566;9.382;2023-07-20T10:42:09;11.85;;;6.78;;
39448;SDS011;25151;45.566;9.382;2023-07-20T10:44:37;12.68;;;6.45;;
39448;SDS011;25151;45.566;9.382;2023-07-20T10:47:13;11.38;;;6.35;;
39448;SDS011;25151;45.566;9.382;2023-07-20T10:49:59;12.68;;;6.78;;
39448;SDS011;25151;45.566;9.382;2023-07-20T10:52:37;14.77;;;7.00;;
39448;SDS011;25151;45.566;9.382;2023-07-20T10:55:16;11.82;;;6.47;;
39448;SDS011;25151;45.566;9.382;2023-07-20T10:57:43;10.52;;;6.20;;
39448;SDS011;25151;45.566;9.382;2023-07-20T11:00:35;9.52;;;5.75;;
39448;SDS011;25151;45.566;9.382;2023-07-20T11:03:02;11.70;;;6.63;;
39448;SDS011;25151;45.566;9.382;2023-07-20T11:05:37;11.15;;;6.43;;
39448;SDS011;25151;45.566;9.382;2023-07-20T11:08:08;14.70;;;6.43;;
39448;SDS011;25151;45.566;9.382;2023-07-20T11:10:40;10.10;;;5.68;;
39448;SDS011;25151;45.566;9.382;2023-07-20T11:15:48;11.48;;;5.70;;
39448;SDS011;25151;45.566;9.382;2023-07-20T11:18:32;8.38;;;5.57;;
39448;SDS011;25151;45.566;9.382;2023-07-20T11:21:06;14.10;;;6.28;;
39448;SDS011;25151;45.566;9.382;2023-07-20T11:23:34;11.95;;;6.10;;
39448;SDS011;25151;45.566;9.382;2023-07-20T11:26:05;12.15;;;6.15;;
39448;SDS011;25151;45.566;9.382;2023-07-20T11:28:33;11.95;;;5.97;;
39448;SDS011;25151;45.566;9.382;2023-07-20T11:31:01;11.85;;;5.47;;
39448;SDS011;25151;45.566;9.382;2023-07-20T11:33:29;13.15;;;6.78;;
39448;SDS011;25151;45.566;9.382;2023-07-20T11:35:56;10.88;;;5.47;;
39448;SDS011;25151;45.566;9.382;2023-07-20T11:38:24;12.43;;;6.25;;
39448;SDS011;25151;45.566;9.382;2023-07-20T11:40:51;12.88;;;6.38;;
39448;SDS011;25151;45.566;9.382;2023-07-20T11:43:17;13.40;;;5.85;;
39448;SDS011;25151;45.566;9.382;2023-07-20T11:45:48;11.63;;;6.00;;
39448;SDS011;25151;45.566;9.382;2023-07-20T11:48:16;10.05;;;6.03;;
39448;SDS011;25151;45.566;9.382;2023-07-20T11:50:44;15.73;;;7.15;;
39448;SDS011;25151;45.566;9.382;2023-07-20T11:53:12;9.98;;;5.85;;
39448;SDS011;25151;45.566;9.382;2023-07-20T11:55:40;8.65;;;5.75;;
39448;SDS011;25151;45.566;9.382;2023-07-20T11:58:07;9.98;;;6.25;;
39448;SDS011;25151;45.566;9.382;2023-07-20T12:00:36;10.55;;;5.90;;
39448;SDS011;25151;45.566;9.382;2023-07-20T12:03:07;11.63;;;5.88;;
39448;SDS011;25151;45.566;9.382;2023-07-20T12:08:04;8.63;;;5.55;;
39448;SDS011;25151;45.566;9.382;2023-07-20T12:10:32;8.55;;;5.78;;
39448;SDS011;25151;45.566;9.382;2023-07-20T12:13:03;10.80;;;5.38;;
39448;SDS011;25151;45.566;9.382;2023-07-20T12:15:31;11.05;;;5.95;;
39448;SDS011;25151;45.566;9.382;2023-07-20T12:18:00;9.30;;;5.90;;
39448;SDS011;25151;45.566;9.382;2023-07-20T12:20:32;14.07;;;6.60;;
39448;SDS011;25151;45.566;9.382;2023-07-20T12:23:03;11.10;;;5.70;;
39448;SDS011;25151;45.566;9.382;2023-07-20T12:28:09;9.57;;;5.32;;
39448;SDS011;25151;45.566;9.382;2023-07-20T12:30:40;10.77;;;5.78;;
39448;SDS011;25151;45.566;9.382;2023-07-20T12:33:08;9.85;;;5.85;;
39448;SDS011;25151;45.566;9.382;2023-07-20T12:35:36;7.90;;;5.45;;
39448;SDS011;25151;45.566;9.382;2023-07-20T12:38:04;9.65;;;5.18;;
39448;SDS011;25151;45.566;9.382;2023-07-20T12:40:32;11.15;;;6.28;;
39448;SDS011;25151;45.566;9.382;2023-07-20T12:42:59;9.57;;;5.50;;
39448;SDS011;25151;45.566;9.382;2023-07-20T12:45:27;11.02;;;6.38;;
39448;SDS011;25151;45.566;9.382;2023-07-20T12:47:54;9.35;;;5.38;;
39448;SDS011;25151;45.566;9.382;2023-07-20T12:50:22;12.52;;;5.60;;
39448;SDS011;25151;45.566;9.382;2023-07-20T12:52:50;10.10;;;5.45;;
39448;SDS011;25151;45.566;9.382;2023-07-20T12:55:18;12.13;;;5.97;;
39448;SDS011;25151;45.566;9.382;2023-07-20T12:57:46;8.70;;;5.28;;
39448;SDS011;25151;45.566;9.382;2023-07-20T13:00:14;12.43;;;5.88;;
39448;SDS011;25151;45.566;9.382;2023-07-20T13:02:41;7.40;;;5.75;;
39448;SDS011;25151;45.566;9.382;2023-07-20T13:05:09;9.10;;;6.28;;
39448;SDS011;25151;45.566;9.382;2023-07-20T13:07:37;7.82;;;5.50;;
39448;SDS011;25151;45.566;9.382;2023-07-20T13:10:05;10.80;;;5.47;;
39448;SDS011;25151;45.566;9.382;2023-07-20T13:12:33;7.72;;;5.32;;
39448;SDS011;25151;45.566;9.382;2023-07-20T13:15:02;10.85;;;5.43;;
39448;SDS011;25151;45.566;9.382;2023-07-20T13:17:36;9.57;;;4.90;;
39448;SDS011;25151;45.566;9.382;2023-07-20T13:20:04;8.10;;;5.28;;
39448;SDS011;25151;45.566;9.382;2023-07-20T13:22:36;8.77;;;5.18;;
39448;SDS011;25151;45.566;9.382;2023-07-20T13:25:06;9.05;;;5.03;;
39448;SDS011;25151;45.566;9.382;2023-07-20T13:27:34;9.20;;;5.28;;
39448;SDS011;25151;45.566;9.382;2023-07-20T13:30:02;9.32;;;5.13;;
39448;SDS011;25151;45.566;9.382;2023-07-20T13:32:35;6.90;;;4.65;;
39448;SDS011;25151;45.566;9.382;2023-07-20T13:35:03;10.00;;;5.18;;
39448;SDS011;25151;45.566;9.382;2023-07-20T13:37:30;9.15;;;5.25;;
39448;SDS011;25151;45.566;9.382;2023-07-20T13:39:58;9.07;;;5.53;;
39448;SDS011;25151;45.566;9.382;2023-07-20T13:42:26;10.18;;;4.82;;
39448;SDS011;25151;45.566;9.382;2023-07-20T13:44:54;11.52;;;5.38;;
39448;SDS011;25151;45.566;9.382;2023-07-20T13:47:21;10.55;;;5.32;;
39448;SDS011;25151;45.566;9.382;2023-07-20T13:49:48;11.60;;;5.00;;
39448;SDS011;25151;45.566;9.382;2023-07-20T13:52:15;8.95;;;5.40;;
39448;SDS011;25151;45.566;9.382;2023-07-20T13:54:42;8.63;;;5.20;;
39448;SDS011;25151;45.566;9.382;2023-07-20T13:57:09;8.57;;;5.63;;
39448;SDS011;25151;45.566;9.382;2023-07-20T13:59:37;8.38;;;5.20;;
39448;SDS011;25151;45.566;9.382;2023-07-20T14:02:04;8.98;;;5.45;;
39448;SDS011;25151;45.566;9.382;2023-07-20T14:04:31;12.57;;;5.10;;
39448;SDS011;25151;45.566;9.382;2023-07-20T14:06:58;6.50;;;4.70;;
39448;SDS011;25151;45.566;9.382;2023-07-20T14:09:25;10.75;;;5.22;;
39448;SDS011;25151;45.566;9.382;2023-07-20T14:11:52;8.02;;;4.80;;
39448;SDS011;25151;45.566;9.382;2023-07-20T14:14:19;9.38;;;5.38;;
39448;SDS011;25151;45.566;9.382;2023-07-20T14:16:46;11.20;;;5.22;;
39448;SDS011;25151;45.566;9.382;2023-07-20T14:19:14;11.05;;;5.07;;
39448;SDS011;25151;45.566;9.382;2023-07-20T14:21:41;7.57;;;4.43;;
39448;SDS011;25151;45.566;9.382;2023-07-20T14:24:08;9.95;;;4.72;;
39448;SDS011;25151;45.566;9.382;2023-07-20T14:26:35;7.35;;;5.25;;
39448;SDS011;25151;45.566;9.382;2023-07-20T14:29:02;7.90;;;4.70;;
39448;SDS011;25151;45.566;9.382;2023-07-20T14:31:29;9.35;;;5.65;;
39448;SDS011;25151;45.566;9.382;2023-07-20T14:33:57;8.73;;;5.05;;
39448;SDS011;25151;45.566;9.382;2023-07-20T14:36:24;11.18;;;5.13;;
39448;SDS011;25151;45.566;9.382;2023-07-20T14:38:50;8.10;;;4.78;;
39448;SDS011;25151;45.566;9.382;2023-07-20T14:41:18;7.22;;;5.13;;
39448;SDS011;25151;45.566;9.382;2023-07-20T14:43:45;8.82;;;5.28;;
39448;SDS011;25151;45.566;9.382;2023-07-20T14:46:13;10.05;;;5.28;;
39448;SDS011;25151;45.566;9.382;2023-07-20T14:48:40;7.72;;;4.95;;
39448;SDS011;25151;45.566;9.382;2023-07-20T14:51:07;7.90;;;4.88;;
39448;SDS011;25151;45.566;9.382;2023-07-20T14:53:34;6.68;;;4.40;;
39448;SDS011;25151;45.566;9.382;2023-07-20T14:56:01;9.20;;;4.80;;
39448;SDS011;25151;45.566;9.382;2023-07-20T14:58:29;10.88;;;5.47;;
39448;SDS011;25151;45.566;9.382;2023-07-20T15:00:57;10.90;;;5.40;;
39448;SDS011;25151;45.566;9.382;2023-07-20T15:03:23;8.20;;;4.88;;
39448;SDS011;25151;45.566;9.382;2023-07-20T15:05:50;9.65;;;5.05;;
39448;SDS011;25151;45.566;9.382;2023-07-20T15:08:17;9.07;;;4.93;;
39448;SDS011;25151;45.566;9.382;2023-07-20T15:10:45;9.45;;;4.70;;
39448;SDS011;25151;45.566;9.382;2023-07-20T15:13:14;7.53;;;5.05;;
39448;SDS011;25151;45.566;9.382;2023-07-20T15:15:41;8.20;;;4.70;;
39448;SDS011;25151;45.566;9.382;2023-07-20T15:18:08;10.77;;;5.22;;
39448;SDS011;25151;45.566;9.382;2023-07-20T15:20:35;9.82;;;5.15;;
39448;SDS011;25151;45.566;9.382;2023-07-20T15:23:02;8.15;;;4.82;;
39448;SDS011;25151;45.566;9.382;2023-07-20T15:25:29;8.35;;;5.28;;